Time;durP1;ratioP1;P1;durP2;ratioP2;P2;SDS_P1;SDS_P2;PMS_P1;PMS_P2;Temp;Humidity;BMP_temperature;BMP_pressure;BME280_temperature;BME280_humidity;BME280_pressure;Samples;Min_cycle;Max_cycle;Signal;HPM_P1;HPM_P2
2023/09/16 00:00:23;;;;;;;9.10;5.40;;;;;;;;;;103771;1291;544969;-75
2023/09/16 00:04:01;;;;;;;9.50;5.70;;;;;;;;;;104143;1293;544897;-75
2023/09/16 00:07:38;;;;;;;10.50;5.90;;;;;;;;;;104013;1292;545385;-75
2023/09/16 00:11:16;;;;;;;11.70;5.10;;;;;;;;;;103619;1291;545041;-75
2023/09/16 00:14:59;;;;;;;11.20;5.40;;;;;;;;;;103406;1295;547804;-75
2023/09/16 00:18:31;;;;;;;9.90;5.40;;;;;;;;;;103801;1292;545448;-75
2023/09/16 00:22:10;;;;;;;8.90;5.40;;;;;;;;;;103879;1289;545216;-75
2023/09/16 00:25:46;;;;;;;12.30;5.60;;;;;;;;;;103493;1295;545005;-75
2023/09/16 00:29:23;;;;;;;8.90;5.10;;;;;;;;;;103780;1292;544832;-75
2023/09/16 00:33:01;;;;;;;10.50;5.30;;;;;;;;;;103773;1289;545071;-75
2023/09/16 00:36:37;;;;;;;10.90;6.10;;;;;;;;;;103751;1292;544802;-75
2023/09/16 00:40:16;;;;;;;11.40;6.00;;;;;;;;;;103767;1289;545540;-75
2023/09/16 00:43:53;;;;;;;11.00;6.40;;;;;;;;;;103760;1295;546034;-75
2023/09/16 00:47:32;;;;;;;10.60;5.50;;;;;;;;;;103728;1290;544799;-75
2023/09/16 00:51:08;;;;;;;9.80;5.40;;;;;;;;;;104034;1293;544837;-75
2023/09/16 00:54:47;;;;;;;10.00;5.60;;;;;;;;;;103547;1295;544935;-75
2023/09/16 00:58:23;;;;;;;8.70;5.60;;;;;;;;;;103755;1294;544859;-75
2023/09/16 01:02:00;;;;;;;9.70;5.40;;;;;;;;;;103860;1289;544740;-75
2023/09/16 01:05:38;;;;;;;9.10;4.70;;;;;;;;;;103756;1292;545684;-75
2023/09/16 01:09:17;;;;;;;12.00;4.70;;;;;;;;;;103758;1292;544754;-75
2023/09/16 01:12:53;;;;;;;9.40;4.60;;;;;;;;;;103776;1290;544987;-75
2023/09/16 01:16:41;;;;;;;10.00;4.90;;;;;;;;;;103677;1292;547978;-75
2023/09/16 01:20:13;;;;;;;8.80;4.90;;;;;;;;;;103800;1298;545208;-76
2023/09/16 01:23:45;;;;;;;9.20;4.60;;;;;;;;;;103777;1295;545704;-75
2023/09/16 01:27:23;;;;;;;9.40;4.40;;;;;;;;;;104169;1290;545345;-75
2023/09/16 01:31:00;;;;;;;9.60;4.30;;;;;;;;;;103750;1292;544860;-75
2023/09/16 01:34:41;;;;;;;9.80;5.20;;;;;;;;;;103772;1291;545362;-75
2023/09/16 01:38:17;;;;;;;8.70;4.80;;;;;;;;;;104343;1286;544831;-75
2023/09/16 01:41:53;;;;;;;8.40;4.00;;;;;;;;;;104015;1289;544668;-75
2023/09/16 01:45:40;;;;;;;8.70;4.20;;;;;;;;;;103774;1291;544898;-75
2023/09/16 01:49:07;;;;;;;9.90;4.90;;;;;;;;;;103846;1291;544798;-74
2023/09/16 01:52:44;;;;;;;12.70;5.40;;;;;;;;;;103799;1290;544779;-75
2023/09/16 01:56:22;;;;;;;8.30;4.50;;;;;;;;;;103778;1292;545013;-75
2023/09/16 02:00:00;;;;;;;9.50;4.60;;;;;;;;;;103764;1291;544868;-74
2023/09/16 02:03:37;;;;;;;8.50;4.30;;;;;;;;;;103730;1294;544751;-75
2023/09/16 02:07:15;;;;;;;8.60;4.30;;;;;;;;;;103845;1291;544900;-75
2023/09/16 02:10:52;;;;;;;8.50;4.80;;;;;;;;;;103749;1292;544704;-75
2023/09/16 02:14:29;;;;;;;8.80;5.00;;;;;;;;;;103747;1290;544883;-75
2023/09/16 02:18:07;;;;;;;8.40;4.60;;;;;;;;;;103846;1288;544971;-75
2023/09/16 02:21:45;;;;;;;8.90;5.10;;;;;;;;;;103763;1292;544758;-75
2023/09/16 02:25:27;;;;;;;9.70;4.90;;;;;;;;;;103667;1290;547903;-75
2023/09/16 02:29:05;;;;;;;10.60;5.00;;;;;;;;;;103906;1289;547980;-75
2023/09/16 02:32:57;;;;;;;8.70;5.00;;;;;;;;;;103697;1292;545229;-75
2023/09/16 02:36:14;;;;;;;11.40;5.60;;;;;;;;;;104045;1292;544962;-75
2023/09/16 02:39:52;;;;;;;10.50;5.70;;;;;;;;;;103735;1290;544811;-75
2023/09/16 02:43:29;;;;;;;9.40;5.20;;;;;;;;;;105038;1279;544723;-75
2023/09/16 02:47:06;;;;;;;9.20;5.60;;;;;;;;;;103946;1289;544970;-75
2023/09/16 02:50:45;;;;;;;10.00;5.60;;;;;;;;;;103523;1293;544965;-75
2023/09/16 02:54:22;;;;;;;9.50;5.50;;;;;;;;;;104147;1288;545947;-75
2023/09/16 02:58:00;;;;;;;10.80;5.60;;;;;;;;;;103771;1294;544793;-75
2023/09/16 03:01:36;;;;;;;10.00;5.50;;;;;;;;;;103749;1292;544761;-75
2023/09/16 03:05:14;;;;;;;9.60;5.40;;;;;;;;;;103750;1291;545360;-75
2023/09/16 03:08:52;;;;;;;10.30;5.40;;;;;;;;;;103777;1292;545432;-75
2023/09/16 03:12:29;;;;;;;11.20;5.70;;;;;;;;;;103601;1305;545025;-75
2023/09/16 03:16:16;;;;;;;9.10;5.40;;;;;;;;;;103792;1289;544939;-75
2023/09/16 03:19:44;;;;;;;9.20;5.30;;;;;;;;;;103767;1290;544815;-75
2023/09/16 03:23:21;;;;;;;9.90;5.50;;;;;;;;;;104181;1295;545001;-75
2023/09/16 03:26:59;;;;;;;10.40;6.10;;;;;;;;;;103759;1292;544785;-75
2023/09/16 03:30:36;;;;;;;9.40;5.70;;;;;;;;;;104559;1282;545911;-75
2023/09/16 03:34:14;;;;;;;9.40;5.50;;;;;;;;;;104605;1280;544967;-75
2023/09/16 03:37:57;;;;;;;9.30;5.80;;;;;;;;;;103618;1292;548475;-75
2023/09/16 03:41:35;;;;;;;9.50;5.40;;;;;;;;;;103287;1295;548559;-75
2023/09/16 03:45:06;;;;;;;8.70;5.40;;;;;;;;;;103995;1289;544953;-75
2023/09/16 03:48:43;;;;;;;10.10;5.70;;;;;;;;;;103731;1290;544953;-75
2023/09/16 03:52:21;;;;;;;9.00;5.20;;;;;;;;;;104023;1294;545867;-75
2023/09/16 03:56:08;;;;;;;10.10;5.80;;;;;;;;;;103538;1297;548000;-75
2023/09/16 03:59:36;;;;;;;9.10;5.40;;;;;;;;;;103844;1288;544809;-75
2023/09/16 04:03:13;;;;;;;10.20;6.00;;;;;;;;;;103813;1292;544800;-75
2023/09/16 04:06:51;;;;;;;9.90;5.80;;;;;;;;;;103766;1291;545028;-75
2023/09/16 04:10:28;;;;;;;10.80;5.70;;;;;;;;;;103479;1295;545180;-75
2023/09/16 04:14:06;;;;;;;10.60;6.00;;;;;;;;;;103760;1292;545705;-74
2023/09/16 04:17:43;;;;;;;11.90;6.50;;;;;;;;;;104028;1291;545419;-75
2023/09/16 04:21:21;;;;;;;10.70;6.10;;;;;;;;;;103792;1289;545559;-75
2023/09/16 04:24:58;;;;;;;11.80;6.50;;;;;;;;;;103786;1292;544921;-75
2023/09/16 04:28:35;;;;;;;12.10;6.70;;;;;;;;;;103630;1291;544742;-74
2023/09/16 04:32:13;;;;;;;10.80;6.70;;;;;;;;;;103526;1292;545083;-74
2023/09/16 04:35:51;;;;;;;10.80;6.50;;;;;;;;;;103494;1296;544920;-74
2023/09/16 04:39:28;;;;;;;10.50;6.20;;;;;;;;;;104019;1292;545326;-75
2023/09/16 04:43:05;;;;;;;10.30;6.50;;;;;;;;;;103765;1292;545034;-75
2023/09/16 04:46:44;;;;;;;10.00;6.50;;;;;;;;;;104107;1286;544763;-75
2023/09/16 04:50:21;;;;;;;13.00;6.50;;;;;;;;;;104078;1289;544942;-75
2023/09/16 04:53:57;;;;;;;11.30;6.60;;;;;;;;;;103512;1293;545665;-74
2023/09/16 04:57:35;;;;;;;10.80;6.50;;;;;;;;;;103763;1289;545427;-74
2023/09/16 05:01:13;;;;;;;12.90;6.80;;;;;;;;;;103736;1289;545492;-75
2023/09/16 05:04:50;;;;;;;13.30;6.90;;;;;;;;;;103766;1292;545499;-74
2023/09/16 05:08:28;;;;;;;11.20;6.50;;;;;;;;;;103740;1289;544722;-75
2023/09/16 05:12:05;;;;;;;11.10;6.60;;;;;;;;;;103768;1294;545603;-75
2023/09/16 05:15:47;;;;;;;10.40;6.30;;;;;;;;;;103496;1294;545438;-75
2023/09/16 05:19:20;;;;;;;10.40;6.60;;;;;;;;;;103998;1292;544816;-75
2023/09/16 05:22:57;;;;;;;13.40;7.00;;;;;;;;;;103835;1288;544772;-75
2023/09/16 05:26:35;;;;;;;11.40;6.30;;;;;;;;;;103560;1305;546482;-75
2023/09/16 05:30:13;;;;;;;9.80;6.00;;;;;;;;;;103703;1295;544835;-75
2023/09/16 05:33:50;;;;;;;11.70;6.30;;;;;;;;;;103827;1291;544909;-75
2023/09/16 05:37:33;;;;;;;12.50;6.80;;;;;;;;;;103576;1295;548267;-75
2023/09/16 05:41:05;;;;;;;11.40;7.20;;;;;;;;;;103994;1289;544836;-74
2023/09/16 05:44:42;;;;;;;12.10;6.50;;;;;;;;;;103732;1291;545063;-74
2023/09/16 05:48:20;;;;;;;12.00;7.00;;;;;;;;;;104247;1286;544960;-75
2023/09/16 05:51:57;;;;;;;12.20;7.30;;;;;;;;;;103826;1289;545665;-75
2023/09/16 05:55:38;;;;;;;14.60;7.20;;;;;;;;;;103543;1295;545352;-75
2023/09/16 05:59:14;;;;;;;12.30;6.80;;;;;;;;;;103727;1295;544948;-75
2023/09/16 06:03:09;;;;;;;11.30;6.90;;;;;;;;;;103743;1291;547807;-75
2023/09/16 06:06:28;;;;;;;13.50;7.70;;;;;;;;;;103741;1291;544863;-74
2023/09/16 06:10:06;;;;;;;13.40;7.60;;;;;;;;;;104621;1289;544811;-73
2023/09/16 06:13:42;;;;;;;14.30;7.20;;;;;;;;;;103834;1291;545011;-75
2023/09/16 06:17:19;;;;;;;13.40;7.70;;;;;;;;;;103542;1306;545039;-75
2023/09/16 06:20:57;;;;;;;12.30;7.30;;;;;;;;;;103688;1295;545008;-75
2023/09/16 06:24:34;;;;;;;12.20;8.10;;;;;;;;;;103708;1291;545822;-75
2023/09/16 06:28:11;;;;;;;12.90;7.50;;;;;;;;;;103790;1292;546000;-74
2023/09/16 06:31:49;;;;;;;12.80;7.30;;;;;;;;;;103697;1289;544804;-74
2023/09/16 06:35:27;;;;;;;11.10;7.30;;;;;;;;;;104274;1285;545039;-75
2023/09/16 06:39:07;;;;;;;13.00;8.30;;;;;;;;;;103646;1295;545397;-75
2023/09/16 06:42:41;;;;;;;13.20;7.90;;;;;;;;;;103994;1295;544843;-75
2023/09/16 06:46:19;;;;;;;13.10;8.00;;;;;;;;;;103752;1290;545027;-75
2023/09/16 06:49:57;;;;;;;11.80;7.20;;;;;;;;;;103796;1292;545840;-75
2023/09/16 06:53:34;;;;;;;13.50;8.00;;;;;;;;;;103752;1291;545859;-75
2023/09/16 06:57:11;;;;;;;13.50;7.80;;;;;;;;;;103693;1292;545510;-75
2023/09/16 07:00:49;;;;;;;13.10;8.50;;;;;;;;;;104175;1285;545059;-75
2023/09/16 07:04:27;;;;;;;13.70;7.80;;;;;;;;;;103777;1288;544795;-74
2023/09/16 07:08:04;;;;;;;11.80;7.20;;;;;;;;;;103770;1289;544974;-74
2023/09/16 07:11:41;;;;;;;12.10;7.30;;;;;;;;;;103727;1290;545058;-74
2023/09/16 07:15:20;;;;;;;15.00;8.20;;;;;;;;;;104059;1289;544733;-75
2023/09/16 07:18:56;;;;;;;12.50;8.40;;;;;;;;;;103756;1292;546050;-74
2023/09/16 07:22:33;;;;;;;12.60;7.30;;;;;;;;;;103772;1291;545171;-75
2023/09/16 07:26:11;;;;;;;12.60;7.80;;;;;;;;;;103765;1290;545012;-75
2023/09/16 07:29:49;;;;;;;12.20;7.40;;;;;;;;;;103744;1292;544812;-75
2023/09/16 07:33:26;;;;;;;12.30;8.30;;;;;;;;;;103748;1289;544777;-74
2023/09/16 07:37:03;;;;;;;14.30;8.50;;;;;;;;;;103815;1294;544988;-74
2023/09/16 07:40:41;;;;;;;13.30;9.20;;;;;;;;;;104235;1290;544731;-74
2023/09/16 07:44:18;;;;;;;15.00;9.40;;;;;;;;;;103995;1289;545078;-74
2023/09/16 07:47:56;;;;;;;11.50;8.40;;;;;;;;;;103758;1292;545414;-74
2023/09/16 07:51:33;;;;;;;15.60;9.80;;;;;;;;;;103820;1292;544942;-74
2023/09/16 07:55:11;;;;;;;14.30;10.30;;;;;;;;;;103901;1291;545990;-74
2023/09/16 07:58:48;;;;;;;17.60;10.90;;;;;;;;;;103712;1290;544749;-75
2023/09/16 08:02:33;;;;;;;14.20;9.60;;;;;;;;;;104061;1285;548091;-75
2023/09/16 08:06:09;;;;;;;12.10;8.00;;;;;;;;;;103568;1292;548086;-74
2023/09/16 08:09:46;;;;;;;11.00;6.80;;;;;;;;;;103637;1291;548089;-75
2023/09/16 08:13:18;;;;;;;11.70;7.40;;;;;;;;;;103940;1288;545595;-74
2023/09/16 08:16:58;;;;;;;10.80;6.70;;;;;;;;;;103689;1291;545222;-74
2023/09/16 08:20:33;;;;;;;11.80;7.30;;;;;;;;;;103707;1292;544771;-74
2023/09/16 08:24:11;;;;;;;12.30;6.70;;;;;;;;;;104217;1288;544825;-75
2023/09/16 08:27:48;;;;;;;10.80;6.70;;;;;;;;;;103745;1290;545448;-74
2023/09/16 08:31:25;;;;;;;10.30;6.40;;;;;;;;;;103729;1292;544996;-74
2023/09/16 08:35:03;;;;;;;10.30;6.10;;;;;;;;;;103799;1290;545402;-74
2023/09/16 08:38:41;;;;;;;9.90;5.60;;;;;;;;;;103729;1290;544873;-74
2023/09/16 08:42:21;;;;;;;10.80;5.90;;;;;;;;;;103777;1294;545893;-75
2023/09/16 08:46:03;;;;;;;9.70;5.80;;;;;;;;;;103489;1292;548068;-74
2023/09/16 08:49:34;;;;;;;10.80;5.70;;;;;;;;;;103780;1289;544753;-74
2023/09/16 08:53:14;;;;;;;11.40;5.80;;;;;;;;;;103990;1289;545158;-74
2023/09/16 08:56:48;;;;;;;10.00;5.60;;;;;;;;;;104031;1290;544978;-74
2023/09/16 09:00:25;;;;;;;10.60;5.20;;;;;;;;;;103475;1294;545111;-74
2023/09/16 09:04:03;;;;;;;10.70;5.40;;;;;;;;;;104449;1288;544936;-74
2023/09/16 09:07:41;;;;;;;9.70;5.00;;;;;;;;;;104157;1285;544879;-75
2023/09/16 09:11:19;;;;;;;9.40;5.30;;;;;;;;;;104017;1292;545957;-74
2023/09/16 09:14:56;;;;;;;10.50;5.40;;;;;;;;;;103614;1295;544763;-74
2023/09/16 09:18:33;;;;;;;10.50;5.40;;;;;;;;;;103821;1289;545425;-74
2023/09/16 09:22:10;;;;;;;9.70;5.20;;;;;;;;;;103852;1289;545822;-73
2023/09/16 09:25:47;;;;;;;10.70;5.90;;;;;;;;;;104444;1286;544742;-72
2023/09/16 09:29:25;;;;;;;10.50;5.00;;;;;;;;;;103732;1289;545656;-75
2023/09/16 09:33:03;;;;;;;9.90;4.50;;;;;;;;;;104023;1294;544997;-72
2023/09/16 09:36:40;;;;;;;8.50;4.70;;;;;;;;;;103910;1291;544841;-74
2023/09/16 09:40:18;;;;;;;8.20;4.70;;;;;;;;;;103737;1292;544961;-74
2023/09/16 09:43:55;;;;;;;10.00;5.10;;;;;;;;;;103728;1292;544960;-72
2023/09/16 09:47:34;;;;;;;11.10;5.10;;;;;;;;;;103712;1291;544920;-74
2023/09/16 09:51:10;;;;;;;10.40;5.30;;;;;;;;;;103695;1290;545011;-74
2023/09/16 09:54:50;;;;;;;12.00;5.30;;;;;;;;;;103727;1289;544971;-74
2023/09/16 09:58:25;;;;;;;8.20;4.80;;;;;;;;;;103693;1292;545337;-73
2023/09/16 10:02:05;;;;;;;15.50;5.80;;;;;;;;;;103770;1290;545612;-74
2023/09/16 10:05:39;;;;;;;9.00;5.20;;;;;;;;;;103963;1288;545530;-74
2023/09/16 10:09:17;;;;;;;11.00;6.40;;;;;;;;;;103791;1292;545231;-74
2023/09/16 10:12:55;;;;;;;10.90;5.60;;;;;;;;;;104020;1287;544959;-74
2023/09/16 10:16:32;;;;;;;9.90;5.10;;;;;;;;;;103526;1298;544993;-74
2023/09/16 10:20:13;;;;;;;12.80;5.60;;;;;;;;;;103741;1291;544925;-75
2023/09/16 10:23:47;;;;;;;10.40;5.20;;;;;;;;;;103730;1290;544876;-74
2023/09/16 10:27:27;;;;;;;12.10;5.50;;;;;;;;;;103631;1292;545043;-74
2023/09/16 10:31:03;;;;;;;10.10;5.40;;;;;;;;;;103704;1294;544704;-74
2023/09/16 10:34:43;;;;;;;10.70;5.20;;;;;;;;;;103733;1295;545372;-72
2023/09/16 10:38:16;;;;;;;11.00;5.20;;;;;;;;;;103769;1291;545724;-72
2023/09/16 10:41:54;;;;;;;11.80;5.60;;;;;;;;;;103729;1297;544961;-73
2023/09/16 10:45:32;;;;;;;10.30;5.70;;;;;;;;;;103809;1291;544798;-73
2023/09/16 10:49:09;;;;;;;13.80;6.00;;;;;;;;;;103601;1291;544856;-74
2023/09/16 10:52:51;;;;;;;10.40;5.30;;;;;;;;;;103988;1295;545647;-73
2023/09/16 10:56:28;;;;;;;10.80;5.50;;;;;;;;;;103572;1294;545633;-74
2023/09/16 11:00:03;;;;;;;10.60;6.20;;;;;;;;;;103762;1292;545418;-75
2023/09/16 11:03:45;;;;;;;11.90;5.90;;;;;;;;;;103849;1293;545351;-73
2023/09/16 11:07:18;;;;;;;8.80;4.60;;;;;;;;;;104008;1291;544666;-73
2023/09/16 11:10:58;;;;;;;9.10;4.30;;;;;;;;;;103525;1295;545256;-74
2023/09/16 11:14:31;;;;;;;8.30;4.10;;;;;;;;;;103785;1290;545304;-75
2023/09/16 11:18:10;;;;;;;7.80;4.50;;;;;;;;;;104071;1287;544969;-75
2023/09/16 11:21:47;;;;;;;9.90;4.50;;;;;;;;;;104008;1289;545130;-75
2023/09/16 11:25:29;;;;;;;8.70;4.50;;;;;;;;;;103742;1292;545430;-72
2023/09/16 11:29:01;;;;;;;10.70;5.50;;;;;;;;;;103706;1292;544854;-74
2023/09/16 11:32:40;;;;;;;9.20;4.30;;;;;;;;;;103679;1290;545010;-73
2023/09/16 11:36:17;;;;;;;7.90;4.20;;;;;;;;;;103781;1292;545012;-74
2023/09/16 11:39:58;;;;;;;7.30;4.00;;;;;;;;;;103983;1290;544760;-74
2023/09/16 11:43:31;;;;;;;8.40;4.00;;;;;;;;;;103700;1298;544723;-73
2023/09/16 11:47:10;;;;;;;9.20;5.00;;;;;;;;;;103790;1293;544994;-74
2023/09/16 11:50:47;;;;;;;9.60;5.10;;;;;;;;;;104080;1289;544783;-72
2023/09/16 11:54:29;;;;;;;10.80;5.00;;;;;;;;;;103935;1289;547797;-80
2023/09/16 11:58:02;;;;;;;8.20;4.40;;;;;;;;;;103806;1292;544702;-75
2023/09/16 12:01:42;;;;;;;9.30;4.70;;;;;;;;;;103888;1289;546149;-75
2023/09/16 12:05:18;;;;;;;7.80;4.80;;;;;;;;;;103814;1289;544747;-72
2023/09/16 12:08:57;;;;;;;8.30;4.80;;;;;;;;;;103676;1291;544867;-74
2023/09/16 12:12:27;;;;;;;9.60;4.80;;;;;;;;;;103775;1290;546811;-75
2023/09/16 12:16:10;;;;;;;8.70;4.70;;;;;;;;;;103799;1291;544974;-73
2023/09/16 12:19:51;;;;;;;9.40;5.00;;;;;;;;;;103756;1289;544720;-73
2023/09/16 12:23:26;;;;;;;9.70;5.40;;;;;;;;;;103835;1289;545017;-73
2023/09/16 12:27:02;;;;;;;10.30;5.00;;;;;;;;;;103707;1292;546034;-74
2023/09/16 12:30:47;;;;;;;7.00;4.20;;;;;;;;;;103524;1295;545648;-75
2023/09/16 12:34:18;;;;;;;9.00;3.60;;;;;;;;;;103754;1292;544796;-72
2023/09/16 12:37:59;;;;;;;7.40;4.30;;;;;;;;;;104062;1291;544960;-72
2023/09/16 12:41:33;;;;;;;7.90;4.00;;;;;;;;;;103875;1289;546371;-73
2023/09/16 12:45:10;;;;;;;6.90;4.10;;;;;;;;;;103885;1289;545047;-74
2023/09/16 12:48:48;;;;;;;6.60;3.60;;;;;;;;;;103696;1289;544913;-74
2023/09/16 12:52:24;;;;;;;7.30;3.60;;;;;;;;;;103767;1289;544993;-75
2023/09/16 12:56:05;;;;;;;6.70;4.10;;;;;;;;;;103748;1292;544654;-73
2023/09/16 12:59:36;;;;;;;7.10;3.80;;;;;;;;;;103916;1289;544782;-74
2023/09/16 13:03:21;;;;;;;7.30;4.10;;;;;;;;;;103486;1296;545706;-75
2023/09/16 13:06:59;;;;;;;7.90;4.60;;;;;;;;;;104022;1292;544941;-75
2023/09/16 13:10:34;;;;;;;8.10;4.10;;;;;;;;;;103689;1291;544790;-74
2023/09/16 13:14:13;;;;;;;11.70;4.50;;;;;;;;;;104173;1284;544953;-75
2023/09/16 13:17:49;;;;;;;9.80;4.30;;;;;;;;;;103723;1289;545064;-74
2023/09/16 13:21:34;;;;;;;9.20;4.30;;;;;;;;;;103578;1291;544872;-73
2023/09/16 13:25:23;;;;;;;8.80;4.90;;;;;;;;;;103773;1289;545062;-71
2023/09/16 13:28:51;;;;;;;9.50;4.80;;;;;;;;;;103822;1289;545629;-73
2023/09/16 13:32:23;;;;;;;8.00;4.40;;;;;;;;;;103545;1292;548042;-75
2023/09/16 13:35:55;;;;;;;7.70;4.30;;;;;;;;;;103672;1289;544785;-74
2023/09/16 13:39:42;;;;;;;7.40;3.90;;;;;;;;;;103752;1292;544800;-75
2023/09/16 13:43:10;;;;;;;7.80;3.80;;;;;;;;;;103683;1292;545407;-75
2023/09/16 13:46:47;;;;;;;6.70;3.60;;;;;;;;;;104052;1291;544785;-75
2023/09/16 13:50:25;;;;;;;7.40;3.20;;;;;;;;;;103721;1289;544880;-74
2023/09/16 13:54:03;;;;;;;7.00;4.00;;;;;;;;;;103715;1292;544764;-73
2023/09/16 13:57:46;;;;;;;6.80;3.80;;;;;;;;;;103460;1292;547824;-76
2023/09/16 14:01:18;;;;;;;6.80;3.50;;;;;;;;;;103740;1289;545208;-74
2023/09/16 14:04:55;;;;;;;7.20;3.90;;;;;;;;;;103866;1292;545499;-72
2023/09/16 14:08:33;;;;;;;7.30;3.80;;;;;;;;;;103784;1289;545022;-74
2023/09/16 14:12:10;;;;;;;8.40;4.30;;;;;;;;;;104234;1286;545468;-75
2023/09/16 14:15:47;;;;;;;7.10;3.20;;;;;;;;;;103860;1289;545506;-78
2023/09/16 14:19:25;;;;;;;7.70;4.50;;;;;;;;;;103728;1292;544964;-73
2023/09/16 14:23:04;;;;;;;6.70;4.00;;;;;;;;;;103699;1290;545866;-75
2023/09/16 14:26:40;;;;;;;7.30;3.50;;;;;;;;;;104076;1285;545614;-73
2023/09/16 14:30:18;;;;;;;8.00;4.30;;;;;;;;;;104017;1288;544748;-74
2023/09/16 14:33:55;;;;;;;7.60;3.70;;;;;;;;;;103775;1292;544757;-73
2023/09/16 14:37:32;;;;;;;8.00;3.00;;;;;;;;;;103775;1289;544959;-73
2023/09/16 14:41:10;;;;;;;6.60;3.70;;;;;;;;;;103655;1295;545450;-73
2023/09/16 14:44:47;;;;;;;7.40;3.90;;;;;;;;;;103772;1289;545046;-75
2023/09/16 14:48:25;;;;;;;8.20;3.70;;;;;;;;;;103754;1290;544689;-73
2023/09/16 14:52:02;;;;;;;8.00;3.60;;;;;;;;;;103750;1292;544998;-73
2023/09/16 14:55:49;;;;;;;6.70;3.30;;;;;;;;;;103603;1290;547856;-76
2023/09/16 14:59:22;;;;;;;7.60;3.70;;;;;;;;;;103404;1294;547908;-74
2023/09/16 15:02:54;;;;;;;7.00;3.60;;;;;;;;;;103763;1292;544961;-73
2023/09/16 15:06:32;;;;;;;6.30;3.60;;;;;;;;;;103660;1295;545013;-73
2023/09/16 15:10:10;;;;;;;6.50;3.40;;;;;;;;;;103924;1288;544781;-74
2023/09/16 15:13:47;;;;;;;7.20;3.20;;;;;;;;;;103793;1295;544957;-74
2023/09/16 15:17:25;;;;;;;6.40;3.50;;;;;;;;;;103856;1288;545756;-75
2023/09/16 15:21:03;;;;;;;8.10;3.70;;;;;;;;;;103694;1292;545361;-74
2023/09/16 15:24:39;;;;;;;7.90;3.60;;;;;;;;;;103719;1295;545021;-75
2023/09/16 15:28:17;;;;;;;8.20;4.10;;;;;;;;;;104029;1288;545047;-73
2023/09/16 15:31:54;;;;;;;7.80;3.90;;;;;;;;;;103812;1291;544718;-72
2023/09/16 15:35:32;;;;;;;9.10;4.20;;;;;;;;;;104067;1292;544602;-72
2023/09/16 15:39:09;;;;;;;10.40;4.70;;;;;;;;;;103797;1289;545012;-74
2023/09/16 15:42:47;;;;;;;10.30;4.80;;;;;;;;;;104018;1290;544758;-74
2023/09/16 15:46:24;;;;;;;9.30;3.80;;;;;;;;;;103634;1295;545260;-75
2023/09/16 15:50:01;;;;;;;7.90;3.70;;;;;;;;;;103894;1289;544927;-74
2023/09/16 15:53:39;;;;;;;8.30;3.70;;;;;;;;;;103751;1291;546310;-73
2023/09/16 15:57:16;;;;;;;8.30;3.70;;;;;;;;;;103638;1295;544835;-74
2023/09/16 16:00:54;;;;;;;6.90;3.70;;;;;;;;;;103762;1289;545423;-74
2023/09/16 16:04:31;;;;;;;6.60;3.60;;;;;;;;;;103746;1292;545029;-74
2023/09/16 16:08:12;;;;;;;8.00;3.20;;;;;;;;;;103838;1294;544762;-74
2023/09/16 16:11:46;;;;;;;6.90;3.40;;;;;;;;;;103744;1291;545193;-73
2023/09/16 16:15:24;;;;;;;7.40;3.40;;;;;;;;;;103477;1295;544859;-75
2023/09/16 16:19:01;;;;;;;7.30;3.40;;;;;;;;;;103812;1289;545464;-73
2023/09/16 16:22:39;;;;;;;6.90;4.00;;;;;;;;;;104188;1286;546410;-74
2023/09/16 16:26:16;;;;;;;7.10;3.90;;;;;;;;;;103787;1288;545282;-74
2023/09/16 16:29:54;;;;;;;6.70;3.30;;;;;;;;;;103858;1289;546304;-73
2023/09/16 16:33:27;;;;;;;7.90;3.50;;;;;;;;;;104072;1289;544943;-74
2023/09/16 16:37:10;;;;;;;6.80;3.70;;;;;;;;;;103760;1291;545054;-75
2023/09/16 16:40:47;;;;;;;7.20;3.80;;;;;;;;;;103809;1291;544998;-75
2023/09/16 16:44:25;;;;;;;7.30;3.60;;;;;;;;;;103724;1289;544669;-74
2023/09/16 16:48:02;;;;;;;6.90;4.20;;;;;;;;;;103826;1289;544717;-73
2023/09/16 16:51:40;;;;;;;8.50;4.70;;;;;;;;;;103593;1300;546446;-74
2023/09/16 16:55:17;;;;;;;8.10;4.60;;;;;;;;;;103682;1289;545385;-75
2023/09/16 16:58:55;;;;;;;9.00;4.40;;;;;;;;;;103683;1291;545170;-73
2023/09/16 17:02:34;;;;;;;8.00;3.70;;;;;;;;;;103563;1295;544864;-75
2023/09/16 17:06:10;;;;;;;8.60;4.40;;;;;;;;;;103715;1290;544960;-74
2023/09/16 17:09:47;;;;;;;7.40;4.20;;;;;;;;;;104343;1286;544759;-74
2023/09/16 17:13:30;;;;;;;8.10;4.60;;;;;;;;;;103474;1292;547998;-74
2023/09/16 17:17:04;;;;;;;8.00;4.10;;;;;;;;;;103889;1289;544801;-74
2023/09/16 17:20:39;;;;;;;7.00;4.00;;;;;;;;;;103740;1289;544776;-74
2023/09/16 17:24:17;;;;;;;7.60;3.90;;;;;;;;;;104007;1289;544967;-75
2023/09/16 17:27:54;;;;;;;7.00;4.10;;;;;;;;;;104261;1283;545461;-75
2023/09/16 17:31:33;;;;;;;7.30;4.20;;;;;;;;;;103656;1291;544798;-74
2023/09/16 17:35:09;;;;;;;8.80;4.10;;;;;;;;;;103714;1289;544976;-74
2023/09/16 17:38:49;;;;;;;7.90;4.20;;;;;;;;;;103848;1288;545075;-74
2023/09/16 17:42:24;;;;;;;8.70;4.50;;;;;;;;;;103974;1294;544735;-74
2023/09/16 17:46:02;;;;;;;8.00;4.20;;;;;;;;;;103759;1290;544765;-74
2023/09/16 17:49:39;;;;;;;7.30;4.30;;;;;;;;;;103611;1292;544828;-75
2023/09/16 17:53:17;;;;;;;7.40;4.60;;;;;;;;;;103694;1302;545432;-73
2023/09/16 17:56:54;;;;;;;8.70;4.60;;;;;;;;;;103915;1291;544775;-74
2023/09/16 18:00:37;;;;;;;10.50;4.60;;;;;;;;;;103635;1289;547772;-73
2023/09/16 18:04:09;;;;;;;8.10;4.30;;;;;;;;;;104109;1302;544953;-73
2023/09/16 18:07:52;;;;;;;8.20;4.30;;;;;;;;;;103534;1292;548004;-74
2023/09/16 18:11:25;;;;;;;8.10;4.60;;;;;;;;;;103857;1289;544787;-75
2023/09/16 18:15:01;;;;;;;7.60;4.80;;;;;;;;;;103782;1292;544798;-74
2023/09/16 18:18:39;;;;;;;9.70;5.90;;;;;;;;;;104291;1289;545502;-74
2023/09/16 18:22:16;;;;;;;10.40;5.30;;;;;;;;;;103713;1292;544863;-74
2023/09/16 18:25:55;;;;;;;10.00;5.10;;;;;;;;;;103989;1288;545416;-74
2023/09/16 18:29:32;;;;;;;10.80;6.10;;;;;;;;;;103728;1289;544809;-74
2023/09/16 18:33:30;;;;;;;9.80;6.10;;;;;;;;;;103699;1292;548320;-74
2023/09/16 18:36:46;;;;;;;9.70;6.70;;;;;;;;;;103986;1289;545050;-74
2023/09/16 18:40:24;;;;;;;9.50;5.60;;;;;;;;;;103771;1291;545434;-75
2023/09/16 18:44:04;;;;;;;9.80;5.30;;;;;;;;;;104111;1288;545657;-74
2023/09/16 18:47:39;;;;;;;10.00;5.40;;;;;;;;;;104074;1292;545370;-74
2023/09/16 18:51:16;;;;;;;8.00;5.50;;;;;;;;;;103922;1288;544813;-74
2023/09/16 18:54:54;;;;;;;9.60;5.50;;;;;;;;;;103650;1290;545550;-74
2023/09/16 18:58:29;;;;;;;8.70;4.80;;;;;;;;;;103851;1289;545281;-74
2023/09/16 19:02:12;;;;;;;9.90;5.60;;;;;;;;;;103857;1288;545766;-75
2023/09/16 19:05:50;;;;;;;11.50;5.70;;;;;;;;;;103703;1290;544731;-74
2023/09/16 19:09:26;;;;;;;8.90;5.80;;;;;;;;;;103834;1289;544776;-75
2023/09/16 19:13:04;;;;;;;8.90;5.70;;;;;;;;;;103640;1298;544762;-74
2023/09/16 19:16:42;;;;;;;9.10;5.40;;;;;;;;;;103881;1290;545320;-74
2023/09/16 19:20:19;;;;;;;9.40;6.10;;;;;;;;;;103855;1289;545947;-74
2023/09/16 19:23:57;;;;;;;10.10;6.40;;;;;;;;;;103764;1290;544844;-74
2023/09/16 19:27:54;;;;;;;10.80;6.10;;;;;;;;;;103426;1298;547780;-75
2023/09/16 19:31:12;;;;;;;8.70;5.80;;;;;;;;;;103775;1290;544704;-73
2023/09/16 19:34:50;;;;;;;9.40;6.00;;;;;;;;;;103982;1289;545012;-74
2023/09/16 19:38:27;;;;;;;9.40;5.30;;;;;;;;;;103873;1291;545114;-74
2023/09/16 19:42:05;;;;;;;9.20;5.30;;;;;;;;;;104018;1290;545378;-76
2023/09/16 19:45:44;;;;;;;10.60;6.90;;;;;;;;;;103937;1289;545459;-74
2023/09/16 19:49:19;;;;;;;14.50;8.60;;;;;;;;;;103530;1295;545092;-74
2023/09/16 19:53:17;;;;;;;12.70;8.10;;;;;;;;;;103557;1295;548349;-74
2023/09/16 19:56:35;;;;;;;13.90;8.10;;;;;;;;;;103784;1291;544962;-74
2023/09/16 20:00:12;;;;;;;12.40;7.90;;;;;;;;;;104019;1290;544772;-74
2023/09/16 20:03:49;;;;;;;13.00;8.20;;;;;;;;;;103731;1291;544925;-74
2023/09/16 20:07:26;;;;;;;12.90;8.60;;;;;;;;;;103783;1291;545274;-73
2023/09/16 20:11:09;;;;;;;12.70;8.50;;;;;;;;;;103410;1294;547930;-74
2023/09/16 20:14:41;;;;;;;15.50;8.50;;;;;;;;;;104005;1294;544924;-74
2023/09/16 20:18:19;;;;;;;16.00;8.50;;;;;;;;;;103588;1291;545507;-74
2023/09/16 20:21:56;;;;;;;15.10;9.10;;;;;;;;;;103849;1289;545514;-74
2023/09/16 20:25:58;;;;;;;13.60;8.50;;;;;;;;;;103426;1298;548071;-74
2023/09/16 20:29:11;;;;;;;13.80;8.30;;;;;;;;;;103721;1290;544724;-75
2023/09/16 20:32:49;;;;;;;13.30;8.90;;;;;;;;;;103482;1295;545038;-74
2023/09/16 20:36:26;;;;;;;17.20;12.50;;;;;;;;;;104052;1291;545446;-74
2023/09/16 20:40:00;;;;;;;19.60;14.50;;;;;;;;;;103825;1292;545627;-74
2023/09/16 20:43:42;;;;;;;16.20;12.60;;;;;;;;;;103683;1292;544925;-74
2023/09/16 20:47:19;;;;;;;16.40;11.40;;;;;;;;;;103850;1289;545444;-74
2023/09/16 20:50:53;;;;;;;17.50;10.70;;;;;;;;;;103854;1289;544697;-75
2023/09/16 20:54:36;;;;;;;15.60;9.80;;;;;;;;;;103789;1289;545011;-74